Time;durP1;ratioP1;P1;durP2;ratioP2;P2;SDS_P1;SDS_P2;PMS_P1;PMS_P2;Temp;Humidity;BMP_temperature;BMP_pressure;BME280_temperature;BME280_humidity;BME280_pressure;Samples;Min_cycle;Max_cycle;Signal;HPM_P1;HPM_P2
2024/03/14 00:01:31;;;;;;;30.40;22.85;;;12.30;99.90;;;;;;5035661;28;20200;-65
2024/03/14 00:03:58;;;;;;;36.67;23.27;;;12.30;99.90;;;;;;5031030;28;20210;-70
2024/03/14 00:06:25;;;;;;;30.48;20.90;;;12.30;99.90;;;;;;5036760;28;20697;-70
2024/03/14 00:08:53;;;;;;;32.00;22.30;;;12.30;99.90;;;;;;5036898;28;20204;-68
2024/03/14 00:11:20;;;;;;;32.03;21.83;;;12.30;99.90;;;;;;5030786;28;20231;-65
2024/03/14 00:13:47;;;;;;;27.83;20.25;;;12.30;99.90;;;;;;5033284;28;20215;-70
2024/03/14 00:16:15;;;;;;;31.40;22.95;;;12.30;99.90;;;;;;5033724;28;20240;-66
2024/03/14 00:18:43;;;;;;;36.05;23.17;;;12.30;99.90;;;;;;5033355;28;20204;-68
2024/03/14 00:21:10;;;;;;;25.48;19.35;;;12.30;99.90;;;;;;5040411;28;20228;-70
2024/03/14 00:23:37;;;;;;;26.13;18.40;;;12.30;99.90;;;;;;5032196;28;20231;-69
2024/03/14 00:26:08;;;;;;;25.27;19.05;;;12.30;99.90;;;;;;5034225;28;20609;-69
2024/03/14 00:28:35;;;;;;;23.40;16.95;;;12.40;99.90;;;;;;5035100;28;20204;-69
2024/03/14 00:31:03;;;;;;;25.45;18.45;;;12.40;99.90;;;;;;5034289;28;20196;-68
2024/03/14 00:33:31;;;;;;;24.75;18.00;;;12.30;99.90;;;;;;5029694;28;20224;-67
2024/03/14 00:35:58;;;;;;;21.55;16.65;;;12.20;99.90;;;;;;5026329;28;20228;-69
2024/03/14 00:38:25;;;;;;;18.65;15.80;;;12.20;99.90;;;;;;5024650;28;20235;-68
2024/03/14 00:40:53;;;;;;;20.45;16.40;;;12.20;99.90;;;;;;5045318;28;20215;-69
2024/03/14 00:43:21;;;;;;;19.70;15.40;;;12.20;99.90;;;;;;5047477;28;20243;-68
2024/03/14 00:45:48;;;;;;;21.40;17.67;;;12.20;99.90;;;;;;5035925;28;20228;-70
2024/03/14 00:48:15;;;;;;;23.05;17.88;;;12.20;99.90;;;;;;5032892;28;20659;-67
2024/03/14 00:50:42;;;;;;;18.85;15.27;;;12.10;99.90;;;;;;5032742;28;20200;-67
2024/03/14 00:53:11;;;;;;;20.48;17.10;;;12.10;99.90;;;;;;5027505;28;20720;-69
2024/03/14 00:55:38;;;;;;;19.08;15.80;;;12.10;99.90;;;;;;5034070;28;20220;-66
2024/03/14 00:58:06;;;;;;;19.42;15.45;;;12.20;99.90;;;;;;5035941;28;20207;-67
2024/03/14 01:00:33;;;;;;;19.20;15.30;;;12.20;99.90;;;;;;5028014;28;20203;-70
2024/03/14 01:03:00;;;;;;;17.40;13.48;;;12.10;99.90;;;;;;5034918;28;20844;-71
2024/03/14 01:05:27;;;;;;;19.55;15.20;;;12.10;99.90;;;;;;5032075;28;20228;-67
2024/03/14 01:07:54;;;;;;;21.23;16.13;;;12.10;99.90;;;;;;5028070;28;20667;-68
2024/03/14 01:10:21;;;;;;;17.05;13.57;;;12.00;99.90;;;;;;5034987;28;20358;-70
2024/03/14 01:12:48;;;;;;;17.33;14.48;;;12.10;99.90;;;;;;5030967;28;20200;-70
2024/03/14 01:15:17;;;;;;;21.63;14.75;;;12.00;99.90;;;;;;5031514;28;20220;-68
2024/03/14 01:17:44;;;;;;;19.65;15.35;;;12.00;99.90;;;;;;5034430;28;20670;-68
2024/03/14 01:20:15;;;;;;;20.10;15.88;;;12.00;99.90;;;;;;5034205;28;20205;-68
2024/03/14 01:22:42;;;;;;;18.90;14.95;;;12.00;99.90;;;;;;5037056;28;20686;-68
2024/03/14 01:25:10;;;;;;;22.20;15.93;;;12.00;99.90;;;;;;5031672;28;20227;-69
2024/03/14 01:27:37;;;;;;;19.05;14.77;;;11.90;99.90;;;;;;5028218;28;20207;-67
2024/03/14 01:30:10;;;;;;;17.33;13.02;;;11.90;99.90;;;;;;5038984;28;20239;-64
2024/03/14 01:32:37;;;;;;;19.92;14.90;;;12.00;99.90;;;;;;5036397;28;20196;-67
2024/03/14 01:35:05;;;;;;;13.45;12.05;;;12.10;99.90;;;;;;5029441;28;20239;-69
2024/03/14 01:37:33;;;;;;;26.88;15.77;;;12.00;99.90;;;;;;5034361;28;20204;-65
2024/03/14 01:40:01;;;;;;;15.48;13.80;;;12.00;99.90;;;;;;5033127;28;20283;-68
2024/03/14 01:42:28;;;;;;;16.77;13.13;;;12.00;99.90;;;;;;5021632;28;20319;-67
2024/03/14 01:44:56;;;;;;;16.25;13.10;;;12.00;99.90;;;;;;5032511;28;20220;-67
2024/03/14 01:47:23;;;;;;;19.45;14.93;;;12.00;99.90;;;;;;5033883;28;20250;-70
2024/03/14 01:49:51;;;;;;;15.90;13.77;;;12.00;99.90;;;;;;5032075;28;20208;-68
2024/03/14 01:52:18;;;;;;;16.88;14.27;;;12.00;99.90;;;;;;5034192;28;20204;-68
2024/03/14 01:54:46;;;;;;;15.57;12.18;;;12.00;99.90;;;;;;5020053;28;20355;-68
2024/03/14 01:57:13;;;;;;;12.88;10.52;;;12.00;99.90;;;;;;5030679;28;20227;-66
2024/03/14 01:59:40;;;;;;;15.18;12.88;;;12.00;99.90;;;;;;5027253;28;20654;-69
2024/03/14 02:02:07;;;;;;;13.32;11.82;;;12.00;99.90;;;;;;5034107;28;20686;-69
2024/03/14 02:04:36;;;;;;;16.05;12.50;;;12.10;99.90;;;;;;5030465;28;20237;-65
2024/03/14 02:07:04;;;;;;;14.45;12.63;;;12.00;99.90;;;;;;5039835;28;20224;-65
2024/03/14 02:09:31;;;;;;;14.75;13.00;;;12.00;99.90;;;;;;5036301;28;20208;-68
2024/03/14 02:12:00;;;;;;;15.10;11.75;;;12.10;99.90;;;;;;5027697;28;20258;-67
2024/03/14 02:14:27;;;;;;;14.52;12.20;;;12.00;99.90;;;;;;5048897;28;20204;-68
2024/03/14 02:16:55;;;;;;;14.88;12.93;;;12.10;99.90;;;;;;5034517;28;20277;-70
2024/03/14 02:19:22;;;;;;;17.08;13.30;;;12.10;99.90;;;;;;5033407;28;20246;-66
2024/03/14 02:21:49;;;;;;;14.63;12.45;;;12.10;99.90;;;;;;5031197;28;20274;-66
2024/03/14 02:24:17;;;;;;;16.35;14.05;;;12.10;99.90;;;;;;5027900;28;20220;-68
2024/03/14 02:26:44;;;;;;;13.38;10.18;;;12.10;99.90;;;;;;5033303;28;20706;-68
2024/03/14 02:29:12;;;;;;;17.45;13.70;;;12.20;99.90;;;;;;5033562;28;20204;-69
2024/03/14 02:31:39;;;;;;;14.82;13.18;;;12.10;99.90;;;;;;5032857;28;21573;-68
2024/03/14 02:34:06;;;;;;;16.48;13.13;;;12.20;99.90;;;;;;5025154;28;20725;-69
2024/03/14 02:36:33;;;;;;;15.50;11.30;;;12.10;99.90;;;;;;5034600;28;20263;-66
2024/03/14 02:39:01;;;;;;;12.85;10.65;;;12.10;99.90;;;;;;5031133;28;20196;-68
2024/03/14 02:41:28;;;;;;;15.63;13.40;;;12.20;99.90;;;;;;5033353;28;20620;-67
2024/03/14 02:43:56;;;;;;;15.50;12.25;;;12.10;99.90;;;;;;5034045;28;20235;-69
2024/03/14 02:46:25;;;;;;;15.50;12.52;;;12.20;99.90;;;;;;5031382;28;20272;-67
2024/03/14 02:48:52;;;;;;;12.68;10.50;;;12.10;99.90;;;;;;5023183;28;20232;-69
2024/03/14 02:51:19;;;;;;;14.70;12.95;;;12.10;99.90;;;;;;5031501;28;20243;-67
2024/03/14 02:53:46;;;;;;;13.30;11.73;;;12.20;99.90;;;;;;5035017;28;20242;-70
2024/03/14 02:56:13;;;;;;;16.10;13.27;;;12.20;99.90;;;;;;5031248;28;20616;-66
2024/03/14 02:58:40;;;;;;;13.23;11.43;;;12.10;99.90;;;;;;5034146;28;20260;-69
2024/03/14 03:01:09;;;;;;;16.42;12.88;;;12.10;99.90;;;;;;5036767;28;20246;-68
2024/03/14 03:03:37;;;;;;;20.63;12.32;;;12.00;99.90;;;;;;5034101;28;20219;-68
2024/03/14 03:06:05;;;;;;;13.07;10.10;;;12.00;99.90;;;;;;5036172;28;20674;-70
2024/03/14 03:08:32;;;;;;;13.05;11.40;;;12.00;99.90;;;;;;5031316;28;20206;-68
2024/03/14 03:10:59;;;;;;;16.65;12.48;;;12.00;99.90;;;;;;5032326;28;20266;-71
2024/03/14 03:13:26;;;;;;;15.50;11.45;;;12.00;99.90;;;;;;5033321;28;20204;-66
2024/03/14 03:15:54;;;;;;;12.55;11.25;;;12.00;99.90;;;;;;5036534;28;20228;-67
2024/03/14 03:18:22;;;;;;;13.95;11.13;;;12.00;99.90;;;;;;5031198;28;20288;-67
2024/03/14 03:20:51;;;;;;;16.20;12.65;;;12.00;99.90;;;;;;5045018;28;20659;-69
2024/03/14 03:23:18;;;;;;;18.52;12.07;;;12.00;99.90;;;;;;5036034;28;20217;-68
2024/03/14 03:25:44;;;;;;;14.98;12.02;;;12.00;99.90;;;;;;5031286;28;20226;-66
2024/03/14 03:28:13;;;;;;;15.27;11.63;;;12.00;99.90;;;;;;5035424;28;20664;-66
2024/03/14 03:30:39;;;;;;;15.60;12.40;;;12.00;99.90;;;;;;5035526;28;20455;-69
2024/03/14 03:33:07;;;;;;;14.05;11.55;;;12.00;99.90;;;;;;5029797;28;20192;-67
2024/03/14 03:35:34;;;;;;;18.02;13.35;;;12.00;99.90;;;;;;5036024;28;20234;-69
2024/03/14 03:38:00;;;;;;;13.63;12.02;;;12.00;99.90;;;;;;5036232;28;20559;-70
2024/03/14 03:40:35;;;;;;;18.53;13.20;;;12.00;99.90;;;;;;5029262;28;20219;-68
2024/03/14 03:43:02;;;;;;;14.20;11.95;;;12.00;99.90;;;;;;5032043;28;20509;-70
2024/03/14 03:45:30;;;;;;;14.98;11.05;;;11.90;99.90;;;;;;5037164;28;20315;-69
2024/03/14 03:47:56;;;;;;;13.15;11.75;;;11.90;99.90;;;;;;5033739;28;20283;-69
2024/03/14 03:50:23;;;;;;;12.90;10.90;;;11.90;99.90;;;;;;5037443;28;20211;-68
2024/03/14 03:52:50;;;;;;;11.52;10.38;;;12.00;99.90;;;;;;5030692;28;20482;-67
2024/03/14 03:55:16;;;;;;;13.95;12.35;;;12.10;99.90;;;;;;5029777;28;20227;-65
2024/03/14 03:57:44;;;;;;;16.60;11.70;;;12.10;99.90;;;;;;5043254;28;20200;-66
2024/03/14 04:02:52;;;;;;;11.15;9.90;;;12.10;99.90;;;;;;5047276;28;20314;-67
2024/03/14 04:05:20;;;;;;;13.70;10.70;;;12.10;99.90;;;;;;5049842;28;20228;-69
2024/03/14 04:07:47;;;;;;;17.95;12.63;;;12.20;99.90;;;;;;5027332;28;20243;-69
2024/03/14 04:10:15;;;;;;;13.68;11.10;;;12.20;99.90;;;;;;5032100;28;20667;-66
2024/03/14 04:12:41;;;;;;;13.23;11.85;;;12.20;99.90;;;;;;5034471;28;20213;-69
2024/03/14 04:15:09;;;;;;;13.95;12.05;;;12.10;99.90;;;;;;5029230;28;20224;-68
2024/03/14 04:17:36;;;;;;;12.25;10.65;;;12.10;99.90;;;;;;5028517;28;20208;-66
2024/03/14 04:20:11;;;;;;;11.82;10.63;;;12.10;99.90;;;;;;5023431;28;20232;-70
2024/03/14 04:22:39;;;;;;;14.48;11.50;;;12.20;99.90;;;;;;5026907;28;20204;-69
2024/03/14 04:25:10;;;;;;;13.32;10.63;;;12.20;99.90;;;;;;5028935;28;20247;-69
2024/03/14 04:27:40;;;;;;;13.57;11.77;;;12.20;99.90;;;;;;5033939;28;20210;-70
2024/03/14 04:30:07;;;;;;;15.95;10.13;;;12.10;99.90;;;;;;5027814;28;20200;-70
2024/03/14 04:32:34;;;;;;;10.63;9.52;;;12.00;99.90;;;;;;5027282;28;20204;-66
2024/03/14 04:35:03;;;;;;;14.13;11.90;;;12.10;99.90;;;;;;5051585;28;20216;-69
2024/03/14 04:37:31;;;;;;;14.23;11.68;;;12.10;99.90;;;;;;5027444;28;20205;-69
2024/03/14 04:39:59;;;;;;;17.70;13.77;;;12.10;99.90;;;;;;5020647;28;20212;-69
2024/03/14 04:42:27;;;;;;;12.98;10.05;;;12.10;99.90;;;;;;5044064;28;20300;-68
2024/03/14 04:44:54;;;;;;;15.38;11.60;;;12.10;99.90;;;;;;5022020;28;20224;-69
2024/03/14 04:47:21;;;;;;;12.65;9.35;;;12.10;99.90;;;;;;5033986;28;20212;-65
2024/03/14 04:49:48;;;;;;;12.57;10.70;;;12.10;99.90;;;;;;5026924;28;20209;-68
2024/03/14 04:52:16;;;;;;;13.77;11.82;;;12.20;99.90;;;;;;5034246;28;20211;-68
2024/03/14 04:54:44;;;;;;;11.40;10.25;;;12.10;99.90;;;;;;5035646;28;20196;-69
2024/03/14 04:57:11;;;;;;;12.13;10.18;;;12.10;99.90;;;;;;5030791;28;20208;-71
2024/03/14 04:59:40;;;;;;;18.45;10.77;;;12.10;99.90;;;;;;5035351;28;20196;-68
2024/03/14 05:02:08;;;;;;;14.43;12.90;;;12.10;99.90;;;;;;5032214;28;20205;-70
2024/03/14 05:04:35;;;;;;;13.80;10.98;;;12.00;99.90;;;;;;5033267;28;20307;-71
2024/03/14 05:07:02;;;;;;;14.75;11.00;;;12.00;99.90;;;;;;5035035;28;20665;-71
2024/03/14 05:09:30;;;;;;;10.95;9.85;;;12.00;99.90;;;;;;5036441;28;20286;-69
2024/03/14 05:11:57;;;;;;;11.48;10.15;;;12.00;99.90;;;;;;5049354;28;20291;-71
2024/03/14 05:14:24;;;;;;;16.98;9.93;;;12.10;99.90;;;;;;5026949;28;20279;-70
2024/03/14 05:16:51;;;;;;;14.55;11.02;;;12.10;99.90;;;;;;5029940;28;20273;-67
2024/03/14 05:19:23;;;;;;;10.90;9.80;;;12.10;99.90;;;;;;5031363;28;20595;-68
2024/03/14 05:21:50;;;;;;;12.15;10.35;;;12.10;99.90;;;;;;5035961;28;20207;-67
2024/03/14 05:24:17;;;;;;;15.27;11.30;;;12.10;99.90;;;;;;5034848;28;20236;-66
2024/03/14 05:26:44;;;;;;;14.73;11.30;;;12.10;99.90;;;;;;5025774;28;20228;-69
2024/03/14 05:29:11;;;;;;;12.80;10.55;;;12.10;99.90;;;;;;5028736;28;20750;-69
2024/03/14 05:31:38;;;;;;;12.75;11.35;;;12.10;99.90;;;;;;5035055;28;20273;-70
2024/03/14 05:34:06;;;;;;;12.30;11.10;;;12.10;99.90;;;;;;5035812;28;20246;-68
2024/03/14 05:36:33;;;;;;;13.50;10.50;;;12.10;99.90;;;;;;5028814;28;20590;-70
2024/03/14 05:39:01;;;;;;;12.20;10.90;;;12.10;99.90;;;;;;5025091;28;20201;-69
2024/03/14 05:41:29;;;;;;;12.80;9.82;;;12.10;99.90;;;;;;5035298;28;20212;-69
2024/03/14 05:43:56;;;;;;;13.75;11.40;;;12.10;99.90;;;;;;5045827;28;20248;-69
2024/03/14 05:46:23;;;;;;;12.52;10.90;;;12.00;99.90;;;;;;5032316;28;20228;-67
2024/03/14 05:48:50;;;;;;;13.35;11.95;;;12.00;99.90;;;;;;5036164;28;20207;-72
2024/03/14 05:51:18;;;;;;;15.57;11.20;;;12.00;99.90;;;;;;5050669;28;20261;-70
2024/03/14 05:53:45;;;;;;;13.48;11.75;;;12.00;99.90;;;;;;5034494;28;20283;-69
2024/03/14 05:56:12;;;;;;;15.13;12.55;;;12.00;99.90;;;;;;5030571;28;20216;-69
2024/03/14 05:58:39;;;;;;;14.63;11.32;;;12.10;99.90;;;;;;5027781;28;20200;-68
2024/03/14 06:01:07;;;;;;;13.27;11.38;;;12.10;99.90;;;;;;5023049;28;20607;-66
2024/03/14 06:03:34;;;;;;;11.98;10.52;;;12.10;99.90;;;;;;5032227;28;20681;-65
2024/03/14 06:06:01;;;;;;;15.00;11.70;;;12.20;99.90;;;;;;5033688;28;20237;-66
2024/03/14 06:08:28;;;;;;;21.45;13.98;;;12.10;99.90;;;;;;5034003;28;20208;-70
2024/03/14 06:10:55;;;;;;;17.48;12.07;;;12.10;99.90;;;;;;5034185;28;20204;-66
2024/03/14 06:13:22;;;;;;;14.35;11.02;;;12.10;99.90;;;;;;5034764;28;20196;-69
2024/03/14 06:15:50;;;;;;;17.00;13.95;;;12.20;99.90;;;;;;5026079;28;20301;-69
2024/03/14 06:18:19;;;;;;;17.63;14.02;;;12.10;99.90;;;;;;5033611;28;20231;-71
2024/03/14 06:20:46;;;;;;;17.55;14.05;;;12.10;99.90;;;;;;5034836;28;20212;-71
2024/03/14 06:23:14;;;;;;;14.95;13.35;;;12.20;99.90;;;;;;5033374;28;20200;-70
2024/03/14 06:25:41;;;;;;;16.30;12.85;;;12.20;99.90;;;;;;5032039;28;20679;-67
2024/03/14 06:28:08;;;;;;;16.10;12.70;;;12.20;99.90;;;;;;5042172;28;20231;-69
2024/03/14 06:30:35;;;;;;;16.73;13.40;;;12.20;99.90;;;;;;5028896;28;20284;-68
2024/03/14 06:33:03;;;;;;;15.52;13.80;;;12.20;99.90;;;;;;5038789;28;20610;-69
2024/03/14 06:35:30;;;;;;;16.60;14.13;;;12.30;99.90;;;;;;5030452;28;20270;-70
2024/03/14 06:37:57;;;;;;;14.68;13.10;;;12.30;99.90;;;;;;5028468;28;20598;-67
2024/03/14 06:40:24;;;;;;;17.05;15.30;;;12.30;99.90;;;;;;5024315;28;20284;-70
2024/03/14 06:42:53;;;;;;;16.50;12.82;;;12.40;99.90;;;;;;5030743;28;20207;-66
2024/03/14 06:45:20;;;;;;;14.82;13.13;;;12.30;99.90;;;;;;5033588;28;20239;-65
2024/03/14 06:47:47;;;;;;;20.75;15.05;;;12.30;99.90;;;;;;5030518;28;20204;-65
2024/03/14 06:50:14;;;;;;;16.33;14.20;;;12.40;99.90;;;;;;5027238;28;20204;-72
2024/03/14 06:52:41;;;;;;;16.83;14.10;;;12.50;99.90;;;;;;5031529;28;20681;-70
2024/03/14 06:55:10;;;;;;;16.50;14.20;;;12.40;99.90;;;;;;5034207;28;20220;-67
2024/03/14 06:57:39;;;;;;;18.52;13.00;;;12.50;99.90;;;;;;5042954;28;20236;-68
2024/03/14 07:00:13;;;;;;;14.30;12.65;;;12.60;99.90;;;;;;5031105;28;20204;-66
2024/03/14 07:02:41;;;;;;;17.05;13.93;;;12.70;99.90;;;;;;5034278;28;20275;-68
2024/03/14 07:05:10;;;;;;;17.02;12.50;;;12.60;99.90;;;;;;5032779;28;20319;-69
2024/03/14 07:07:37;;;;;;;17.95;13.93;;;12.60;99.90;;;;;;5031226;28;20208;-70
2024/03/14 07:10:08;;;;;;;19.83;13.30;;;12.70;99.90;;;;;;5032920;28;20290;-69
2024/03/14 07:12:35;;;;;;;16.30;14.57;;;12.70;99.90;;;;;;5032753;28;20204;-71
2024/03/14 07:15:03;;;;;;;15.07;13.05;;;12.60;99.90;;;;;;5030207;28;20285;-70
2024/03/14 07:17:31;;;;;;;16.02;12.40;;;12.70;99.90;;;;;;5047058;28;20208;-70
2024/03/14 07:19:59;;;;;;;18.35;14.10;;;12.80;99.90;;;;;;5027298;28;20213;-67
2024/03/14 07:22:27;;;;;;;16.55;13.45;;;12.80;99.90;;;;;;5031826;28;20551;-68
2024/03/14 07:24:54;;;;;;;17.27;13.77;;;12.80;99.90;;;;;;5025596;28;20226;-69
2024/03/14 07:27:21;;;;;;;15.40;12.85;;;12.90;99.90;;;;;;5018227;28;20255;-67
2024/03/14 07:29:48;;;;;;;15.88;12.48;;;12.90;99.90;;;;;;5032691;28;20244;-66
2024/03/14 07:32:15;;;;;;;15.98;13.88;;;12.90;99.90;;;;;;5030404;28;20283;-70
2024/03/14 07:34:45;;;;;;;13.68;11.13;;;12.90;99.90;;;;;;5019819;28;20263;-68
2024/03/14 07:37:14;;;;;;;16.70;11.85;;;12.90;99.90;;;;;;5023998;28;20203;-69
2024/03/14 07:39:41;;;;;;;19.58;15.02;;;12.90;99.90;;;;;;5041496;28;20294;-68
2024/03/14 07:42:08;;;;;;;14.77;12.27;;;12.80;99.90;;;;;;5034801;28;20208;-68
2024/03/14 07:44:35;;;;;;;14.30;12.80;;;12.90;99.90;;;;;;5034073;28;20226;-70
2024/03/14 07:47:04;;;;;;;16.50;12.60;;;12.80;99.90;;;;;;5034139;28;20228;-68
2024/03/14 07:49:31;;;;;;;15.30;12.60;;;12.80;99.90;;;;;;5026968;28;20200;-68
2024/03/14 07:51:58;;;;;;;14.32;12.82;;;12.90;99.90;;;;;;5029254;28;20212;-69
2024/03/14 07:54:27;;;;;;;17.85;13.05;;;13.20;99.90;;;;;;5033997;28;20266;-69
2024/03/14 07:56:54;;;;;;;15.70;13.85;;;13.30;99.90;;;;;;5028327;28;20228;-67
2024/03/14 07:59:23;;;;;;;15.32;11.95;;;13.50;99.90;;;;;;5031247;28;20200;-68
2024/03/14 08:01:51;;;;;;;16.88;11.63;;;13.70;99.90;;;;;;5026521;28;20619;-68
2024/03/14 08:04:23;;;;;;;13.13;11.20;;;13.80;99.90;;;;;;5048542;28;20216;-68
2024/03/14 08:06:51;;;;;;;12.77;11.48;;;13.90;99.90;;;;;;5033073;28;20319;-70
2024/03/14 08:09:25;;;;;;;13.02;11.63;;;14.00;99.90;;;;;;5033826;28;20207;-71
2024/03/14 08:11:52;;;;;;;13.47;11.10;;;14.30;99.90;;;;;;5030098;28;20254;-69
2024/03/14 08:14:20;;;;;;;11.70;9.97;;;15.50;99.90;;;;;;5027322;28;20473;-69
2024/03/14 08:16:47;;;;;;;13.70;12.27;;;16.60;99.90;;;;;;5034432;28;20524;-71
2024/03/14 08:19:15;;;;;;;15.90;12.33;;;17.90;99.90;;;;;;5028175;28;20475;-67
2024/03/14 08:21:43;;;;;;;13.73;11.37;;;18.70;99.90;;;;;;5024594;28;20445;-67
2024/03/14 08:24:11;;;;;;;10.70;9.40;;;18.80;99.90;;;;;;5032227;28;20483;-68
2024/03/14 08:26:39;;;;;;;12.37;11.10;;;19.30;99.90;;;;;;5024736;28;20496;-71
2024/03/14 08:29:06;;;;;;;11.70;10.50;;;19.70;99.90;;;;;;5027315;28;20472;-73
2024/03/14 08:31:33;;;;;;;12.83;10.47;;;19.80;99.90;;;;;;5031182;28;20474;-72
2024/03/14 08:34:00;;;;;;;11.83;9.67;;;20.40;99.90;;;;;;5029085;28;20934;-68
2024/03/14 08:36:29;;;;;;;12.13;8.33;;;21.50;98.70;;;;;;5032356;28;20984;-70
2024/03/14 08:38:56;;;;;;;13.53;10.90;;;21.80;98.10;;;;;;5029016;28;20497;-71
2024/03/14 08:41:23;;;;;;;10.77;9.73;;;21.40;97.00;;;;;;5043186;28;20435;-68
2024/03/14 08:43:54;;;;;;;12.63;11.00;;;21.50;97.30;;;;;;5035762;28;20632;-68
2024/03/14 08:46:21;;;;;;;13.50;10.60;;;21.50;96.50;;;;;;5023257;28;20470;-69
2024/03/14 08:48:48;;;;;;;15.53;13.77;;;21.10;96.40;;;;;;5028136;28;20476;-70
2024/03/14 08:51:15;;;;;;;15.20;10.47;;;20.50;97.50;;;;;;5030531;28;20931;-70
2024/03/14 08:56:23;;;;;;;11.77;9.87;;;19.20;98.70;;;;;;5034970;28;20535;-68
2024/03/14 08:58:56;;;;;;;13.10;10.20;;;18.80;99.90;;;;;;5025914;28;20527;-69
2024/03/14 09:01:24;;;;;;;13.90;9.40;;;18.70;99.90;;;;;;5033819;28;20443;-70
2024/03/14 09:03:51;;;;;;;11.00;9.70;;;19.40;99.90;;;;;;5035935;28;21029;-69
2024/03/14 09:06:18;;;;;;;10.73;9.63;;;20.20;99.20;;;;;;5033210;28;20488;-72
2024/03/14 09:08:45;;;;;;;11.13;9.67;;;20.10;98.90;;;;;;5034547;28;20519;-71
2024/03/14 09:11:13;;;;;;;12.53;9.83;;;20.30;98.50;;;;;;5033808;28;20494;-71
2024/03/14 09:13:41;;;;;;;11.73;9.57;;;20.20;98.70;;;;;;5029131;28;20568;-68
2024/03/14 09:16:08;;;;;;;13.10;10.17;;;20.20;98.40;;;;;;5030728;28;20536;-67
2024/03/14 09:18:37;;;;;;;12.63;11.33;;;20.40;98.30;;;;;;5027094;28;20505;-70
2024/03/14 09:21:07;;;;;;;13.13;10.80;;;20.60;97.80;;;;;;5032978;28;20450;-66
2024/03/14 09:23:34;;;;;;;12.97;10.60;;;20.00;98.30;;;;;;5033460;28;20444;-67
2024/03/14 09:26:02;;;;;;;13.67;9.50;;;19.90;98.90;;;;;;5034722;28;20491;-69
2024/03/14 09:28:31;;;;;;;9.97;8.97;;;20.10;98.40;;;;;;5030467;28;20812;-67
2024/03/14 09:31:01;;;;;;;10.23;9.17;;;20.50;98.20;;;;;;5028828;28;20451;-70
2024/03/14 09:33:28;;;;;;;15.10;10.63;;;20.10;98.30;;;;;;5027828;28;20441;-70
2024/03/14 09:35:56;;;;;;;9.87;8.87;;;20.40;98.20;;;;;;5030262;28;20471;-67
2024/03/14 09:38:23;;;;;;;10.33;8.43;;;20.10;98.90;;;;;;5032226;28;20445;-69
2024/03/14 09:40:50;;;;;;;12.30;9.87;;;20.60;97.70;;;;;;5032224;28;20854;-70
2024/03/14 09:43:19;;;;;;;15.57;9.83;;;20.70;97.80;;;;;;5027963;28;20441;-67
2024/03/14 09:45:48;;;;;;;9.97;8.93;;;20.30;97.70;;;;;;5027648;28;20998;-68
2024/03/14 09:48:15;;;;;;;10.37;9.37;;;19.20;98.80;;;;;;5033468;28;20438;-66
2024/03/14 09:50:47;;;;;;;10.43;8.83;;;18.60;99.90;;;;;;5021700;28;20480;-66
2024/03/14 09:53:15;;;;;;;9.73;8.70;;;19.00;99.90;;;;;;5036187;28;20452;-68
2024/03/14 09:55:42;;;;;;;9.80;8.50;;;19.60;99.50;;;;;;5032010;28;20496;-67
2024/03/14 09:58:14;;;;;;;10.50;9.07;;;20.20;98.40;;;;;;5021938;28;20801;-65
2024/03/14 10:00:41;;;;;;;10.33;8.40;;;21.30;97.80;;;;;;5030237;28;20447;-68
2024/03/14 10:03:08;;;;;;;12.27;8.50;;;22.00;96.20;;;;;;5018084;28;20444;-68
2024/03/14 10:05:36;;;;;;;14.40;9.47;;;22.10;95.90;;;;;;5050151;28;20514;-71
2024/03/14 10:08:04;;;;;;;12.53;8.40;;;21.60;95.60;;;;;;5034504;28;20454;-65
2024/03/14 10:10:33;;;;;;;10.53;8.73;;;21.80;95.70;;;;;;5035152;28;20565;-69
2024/03/14 10:13:00;;;;;;;8.30;7.33;;;22.00;95.60;;;;;;5031950;28;20521;-70
2024/03/14 10:15:28;;;;;;;13.23;8.37;;;22.00;95.60;;;;;;5051717;28;20462;-70
2024/03/14 10:17:56;;;;;;;10.33;8.83;;;21.70;95.20;;;;;;5030609;28;20526;-69
2024/03/14 10:20:23;;;;;;;12.87;9.80;;;20.70;95.60;;;;;;5035196;28;20491;-69
2024/03/14 10:22:51;;;;;;;11.20;9.57;;;20.20;97.30;;;;;;5032622;28;20452;-70
2024/03/14 10:25:23;;;;;;;11.03;9.37;;;19.80;97.70;;;;;;5029111;28;21058;-70
2024/03/14 10:27:53;;;;;;;16.30;8.50;;;19.80;98.10;;;;;;5033268;28;20462;-68
2024/03/14 10:30:21;;;;;;;10.33;8.07;;;20.40;98.10;;;;;;5032490;28;20445;-69
2024/03/14 10:32:49;;;;;;;10.73;7.90;;;21.20;97.30;;;;;;5035177;28;20447;-70
2024/03/14 10:35:16;;;;;;;9.23;7.67;;;21.80;96.20;;;;;;5032950;28;20469;-69
2024/03/14 10:37:43;;;;;;;8.93;7.90;;;21.90;95.40;;;;;;5030294;28;21017;-68
2024/03/14 10:40:13;;;;;;;10.60;8.70;;;21.90;95.40;;;;;;5028360;28;20525;-68
2024/03/14 10:42:40;;;;;;;9.60;7.50;;;20.60;96.20;;;;;;5032022;28;20454;-70
2024/03/14 10:45:09;;;;;;;11.70;8.00;;;20.10;96.70;;;;;;5029081;28;20488;-65
2024/03/14 10:47:36;;;;;;;9.40;7.83;;;20.20;96.90;;;;;;5029042;28;20447;-72
2024/03/14 10:50:09;;;;;;;10.33;7.70;;;20.30;97.20;;;;;;5035619;28;20502;-70
2024/03/14 10:52:39;;;;;;;9.67;7.43;;;20.10;97.70;;;;;;5035673;28;20975;-70
2024/03/14 10:55:10;;;;;;;8.57;7.60;;;20.00;97.80;;;;;;5037229;28;20468;-70
2024/03/14 10:57:37;;;;;;;11.20;8.93;;;20.00;97.90;;;;;;5035097;28;20448;-69
2024/03/14 11:00:12;;;;;;;9.00;6.93;;;20.10;97.70;;;;;;5040816;28;20430;-66
2024/03/14 11:02:41;;;;;;;10.17;7.30;;;19.90;97.10;;;;;;5035657;28;20981;-68
2024/03/14 11:05:09;;;;;;;8.33;7.20;;;20.00;97.70;;;;;;5034403;28;20487;-70
2024/03/14 11:07:36;;;;;;;11.87;7.10;;;19.60;97.80;;;;;;5034229;28;20444;-68
2024/03/14 11:10:08;;;;;;;8.20;7.40;;;19.60;97.70;;;;;;5034474;28;20493;-72
2024/03/14 11:12:35;;;;;;;9.77;7.03;;;19.80;97.30;;;;;;5036649;28;20442;-65
2024/03/14 11:15:03;;;;;;;7.97;6.60;;;19.90;97.30;;;;;;5038323;28;20494;-69
2024/03/14 11:17:31;;;;;;;7.77;6.97;;;19.60;97.50;;;;;;5037462;28;21013;-71
2024/03/14 11:19:58;;;;;;;35.97;7.63;;;19.50;97.90;;;;;;5038494;28;20916;-67
2024/03/14 11:22:25;;;;;;;9.40;6.30;;;19.30;97.80;;;;;;5038455;28;20448;-69
2024/03/14 11:24:53;;;;;;;9.20;6.50;;;19.40;97.90;;;;;;5053933;28;20477;-70
2024/03/14 11:27:20;;;;;;;8.90;7.17;;;19.50;98.00;;;;;;5036905;28;20439;-69
2024/03/14 11:29:47;;;;;;;9.47;7.37;;;19.60;97.60;;;;;;5040715;28;20483;-70
2024/03/14 11:32:18;;;;;;;8.33;6.03;;;19.50;97.70;;;;;;5040111;28;20442;-69
2024/03/14 11:34:46;;;;;;;7.43;6.63;;;19.60;98.00;;;;;;5033333;28;20452;-69
2024/03/14 11:37:14;;;;;;;8.80;6.40;;;19.50;97.90;;;;;;5037495;28;21521;-72
2024/03/14 11:39:46;;;;;;;13.70;7.70;;;19.70;97.60;;;;;;5038069;28;20831;-71
2024/03/14 11:42:14;;;;;;;7.73;5.60;;;19.60;97.60;;;;;;5038280;28;20915;-70
2024/03/14 11:44:44;;;;;;;6.93;5.93;;;19.90;97.40;;;;;;5037239;28;20447;-71
2024/03/14 11:47:14;;;;;;;8.57;5.90;;;19.80;96.90;;;;;;5036953;28;20446;-67
2024/03/14 11:49:42;;;;;;;7.33;6.40;;;19.70;97.30;;;;;;5037616;28;20439;-70
2024/03/14 11:52:11;;;;;;;9.17;6.87;;;19.40;97.80;;;;;;5037406;28;20443;-69
2024/03/14 11:54:40;;;;;;;8.00;6.30;;;19.30;97.90;;;;;;5037381;28;20477;-68
2024/03/14 11:57:08;;;;;;;8.03;5.90;;;19.00;98.10;;;;;;5037000;28;20947;-67
2024/03/14 11:59:38;;;;;;;7.50;5.90;;;19.00;97.90;;;;;;5037649;28;20442;-67
2024/03/14 12:02:05;;;;;;;7.20;5.90;;;19.00;98.00;;;;;;5037288;28;20446;-71
2024/03/14 12:04:32;;;;;;;8.30;5.83;;;18.90;98.30;;;;;;5036908;28;20443;-67
2024/03/14 12:07:03;;;;;;;9.00;6.50;;;18.90;98.60;;;;;;5053122;28;20498;-68
2024/03/14 12:09:33;;;;;;;5.90;5.40;;;18.80;98.50;;;;;;5039313;28;20534;-69
2024/03/14 12:12:00;;;;;;;8.00;5.17;;;18.70;98.20;;;;;;5032814;28;20504;-69
2024/03/14 12:14:28;;;;;;;6.50;5.83;;;18.80;98.10;;;;;;5028621;28;20991;-68
2024/03/14 12:16:55;;;;;;;8.23;6.03;;;18.50;98.10;;;;;;5032848;28;20454;-64
2024/03/14 12:19:22;;;;;;;8.07;5.80;;;18.70;98.30;;;;;;5030070;28;20935;-69
2024/03/14 12:21:59;;;;;;;12.23;5.97;;;18.60;98.20;;;;;;5029705;28;20471;-69
2024/03/14 12:24:27;;;;;;;7.50;5.47;;;18.60;98.00;;;;;;5036014;28;20481;-69
2024/03/14 12:26:57;;;;;;;7.50;5.03;;;18.60;97.90;;;;;;5034424;28;20483;-72
2024/03/14 12:29:24;;;;;;;7.23;5.43;;;18.60;98.10;;;;;;5034940;28;20442;-66
2024/03/14 12:31:53;;;;;;;5.67;5.07;;;18.40;98.50;;;;;;5031639;28;20478;-68
2024/03/14 12:34:20;;;;;;;9.07;5.87;;;18.50;98.40;;;;;;5036784;28;20439;-70
2024/03/14 12:36:47;;;;;;;6.20;5.63;;;18.30;98.40;;;;;;5029304;28;20464;-69
2024/03/14 12:39:15;;;;;;;6.03;5.40;;;18.50;98.60;;;;;;5035228;28;20482;-67